Аэропорт: Талаги. Архангельск

ICAO: ULAA

METAR:
2022-06-26 10:00:00
ULAA 261000Z 20002MPS 9999 SCT020CB 25/10 Q1017 R08/290060 NOSIG RMK QFE761/1015
METAR:
2022-06-26 08:00:00
TAF ULAA 260800Z 2609/2709 18003MPS 9999 BKN017 TEMPO 2609/2615 25003G08MPS 6000 -TSRA FEW007 BKN016CB TEMPO 2615/2701 25005G10MPS 6000 -SHRA BKN016CB FM270100 06003MPS 9999 BKN020 TEMPO 2701/2709 01005G010MPS 6000 SCT016